createdAt,value
2024-03-16T00:00:32.092Z,100064.59
2024-03-16T00:03:01.075Z,100068.19
2024-03-16T00:05:30.000Z,100067.47
2024-03-16T00:07:58.382Z,100070.28
2024-03-16T00:10:30.294Z,100072.03
2024-03-16T00:12:59.025Z,100071.47
2024-03-16T00:15:28.019Z,100075.53
2024-03-16T00:17:56.440Z,100071.41
2024-03-16T00:20:26.936Z,100070.25
2024-03-16T00:22:55.334Z,100077.44
2024-03-16T00:25:23.695Z,100066.75
2024-03-16T00:27:53.955Z,100074.47
2024-03-16T00:30:24.305Z,100072.41
2024-03-16T00:32:52.960Z,100072.50
2024-03-16T00:35:21.397Z,100070.41
2024-03-16T00:37:50.347Z,100065.94
2024-03-16T00:40:20.600Z,100069.16
2024-03-16T00:42:49.296Z,100075.06
2024-03-16T00:45:17.768Z,100072.03
2024-03-16T00:47:46.210Z,100072.69
2024-03-16T00:50:15.711Z,100067.94
2024-03-16T00:52:44.229Z,100066.88
2024-03-16T00:55:12.742Z,100075.66
2024-03-16T00:57:41.047Z,100071.06
2024-03-16T01:00:10.795Z,100068.22
2024-03-16T01:02:40.663Z,100063.63
2024-03-16T01:05:09.472Z,100060.72
2024-03-16T01:07:37.456Z,100071.19
2024-03-16T01:10:07.399Z,100078.50
2024-03-16T01:12:35.603Z,100068.34
2024-03-16T01:15:04.740Z,100079.50
2024-03-16T01:17:33.046Z,100073.13
2024-03-16T01:20:01.571Z,100071.88
2024-03-16T01:22:29.998Z,100075.25
2024-03-16T01:24:58.818Z,100075.38
2024-03-16T01:27:27.353Z,100068.56
2024-03-16T01:29:55.742Z,100070.31
2024-03-16T01:32:24.475Z,100067.81
2024-03-16T01:34:52.913Z,100064.63
2024-03-16T01:37:21.299Z,100066.72
2024-03-16T01:39:51.055Z,100068.78
2024-03-16T01:42:19.707Z,100067.13
2024-03-16T01:45:15.962Z,100072.75
2024-03-16T01:47:48.406Z,100062.78
2024-03-16T01:50:20.626Z,100060.81
2024-03-16T01:52:49.708Z,100067.00
2024-03-16T01:55:19.008Z,100073.28
2024-03-16T01:57:47.479Z,100064.69
2024-03-16T02:00:16.754Z,100064.75
2024-03-16T02:02:45.555Z,100064.06
2024-03-16T02:05:13.884Z,100057.88
2024-03-16T02:07:46.136Z,100065.59
2024-03-16T02:10:14.591Z,100061.53
2024-03-16T02:12:43.484Z,100067.31
2024-03-16T02:15:12.267Z,100075.03
2024-03-16T02:17:40.589Z,100068.84
2024-03-16T02:20:15.949Z,100075.72
2024-03-16T02:22:44.941Z,100070.63
2024-03-16T02:25:14.106Z,100062.03
2024-03-16T02:27:42.486Z,100069.16
2024-03-16T02:30:12.005Z,100069.50
2024-03-16T02:32:40.442Z,100066.53
2024-03-16T02:35:09.303Z,100066.25
2024-03-16T02:37:38.128Z,100071.53
2024-03-16T02:40:07.411Z,100054.31
2024-03-16T02:42:36.517Z,100055.94
2024-03-16T02:45:07.322Z,100057.28
2024-03-16T02:47:35.724Z,100057.19
2024-03-16T02:50:05.219Z,100065.59
2024-03-16T02:52:33.721Z,100071.00
2024-03-16T02:55:02.384Z,100063.28
2024-03-16T02:57:31.029Z,100071.91
2024-03-16T02:59:59.385Z,100083.44
2024-03-16T03:02:29.238Z,100077.78
2024-03-16T03:04:57.560Z,100090.50
2024-03-16T03:07:25.910Z,100088.84
2024-03-16T03:09:54.286Z,100088.09
2024-03-16T03:12:24.146Z,100082.69
2024-03-16T03:14:52.677Z,100079.66
2024-03-16T03:17:24.131Z,100077.56
2024-03-16T03:19:52.570Z,100080.28
2024-03-16T03:22:21.033Z,100084.53
2024-03-16T03:24:49.353Z,100081.56
2024-03-16T03:27:17.777Z,100080.91
2024-03-16T03:29:47.365Z,100090.56
2024-03-16T03:32:15.884Z,100086.81
2024-03-16T03:34:44.216Z,100086.41
2024-03-16T03:37:13.562Z,100091.41
2024-03-16T03:39:42.380Z,100097.53
2024-03-16T03:42:12.478Z,100094.94
2024-03-16T03:44:51.254Z,100094.34
2024-03-16T03:47:19.680Z,100099.50
2024-03-16T03:49:52.192Z,100108.00
2024-03-16T03:52:21.420Z,100106.97
2024-03-16T03:54:50.145Z,100108.19
2024-03-16T03:57:18.521Z,100105.19
2024-03-16T03:59:46.820Z,100109.09
2024-03-16T04:02:15.106Z,100117.44
2024-03-16T04:04:43.424Z,100127.00
2024-03-16T04:07:12.150Z,100116.91
2024-03-16T04:09:45.811Z,100113.94
2024-03-16T04:12:14.315Z,100120.06
2024-03-16T04:14:42.700Z,100122.13
2024-03-16T04:17:11.602Z,100115.91
2024-03-16T04:19:40.417Z,100121.66
2024-03-16T04:22:08.823Z,100120.00
2024-03-16T04:24:37.918Z,100118.06
2024-03-16T04:27:06.454Z,100131.34
2024-03-16T04:29:34.805Z,100135.06
2024-03-16T04:32:03.233Z,100128.69
2024-03-16T04:34:31.604Z,100136.38
2024-03-16T04:37:00.199Z,100142.53
2024-03-16T04:39:28.861Z,100139.56
2024-03-16T04:41:57.171Z,100137.03
2024-03-16T04:44:25.500Z,100148.03
2024-03-16T04:46:56.304Z,100142.38
2024-03-16T04:49:24.665Z,100147.88
2024-03-16T04:51:53.039Z,100138.44
2024-03-16T04:54:21.400Z,100144.94
2024-03-16T04:56:50.014Z,100145.66
2024-03-16T04:59:18.320Z,100144.22
2024-03-16T05:01:46.918Z,100140.22
2024-03-16T05:04:15.319Z,100140.88
2024-03-16T05:06:43.708Z,100153.53
2024-03-16T05:09:13.891Z,100163.19
2024-03-16T05:11:42.273Z,100158.03
2024-03-16T05:14:10.724Z,100159.44
2024-03-16T05:16:40.989Z,100164.16
2024-03-16T05:19:09.529Z,100163.06
2024-03-16T05:21:38.010Z,100160.31
2024-03-16T05:24:06.608Z,100167.09
2024-03-16T05:26:35.478Z,100173.97
2024-03-16T05:29:04.236Z,100168.75
2024-03-16T05:31:33.435Z,100185.28
2024-03-16T05:34:02.033Z,100200.81
2024-03-16T05:36:30.470Z,100217.94
2024-03-16T05:38:58.788Z,100208.69
2024-03-16T05:41:27.312Z,100226.59
2024-03-16T05:43:55.800Z,100233.59
2024-03-16T05:46:24.101Z,100240.78
2024-03-16T05:48:52.505Z,100249.88
2024-03-16T05:51:20.969Z,100269.09
2024-03-16T05:53:49.388Z,100266.28
2024-03-16T05:56:18.285Z,100281.38
2024-03-16T05:58:47.269Z,100289.13
2024-03-16T06:01:18.381Z,100290.78
2024-03-16T06:03:46.292Z,100308.06
2024-03-16T06:06:14.674Z,100307.97
2024-03-16T06:08:43.295Z,100320.78
2024-03-16T06:11:11.797Z,100330.63
2024-03-16T06:13:40.155Z,100338.78
2024-03-16T06:16:08.565Z,100340.34
2024-03-16T06:18:40.998Z,100362.22
2024-03-16T06:21:11.109Z,100361.75
2024-03-16T06:23:39.622Z,100373.41
2024-03-16T06:26:08.039Z,100376.25
2024-03-16T06:28:39.388Z,100384.97
2024-03-16T06:31:12.281Z,100386.38
2024-03-16T06:33:46.479Z,100393.44
2024-03-16T06:36:14.932Z,100398.66
2024-03-16T06:38:43.470Z,100409.28
2024-03-16T06:41:11.820Z,100414.91
2024-03-16T06:43:40.751Z,100417.06
2024-03-16T06:46:11.695Z,100414.63
2024-03-16T06:48:40.298Z,100430.41
2024-03-16T06:51:08.671Z,100432.50
2024-03-16T06:53:37.799Z,100440.22
2024-03-16T06:56:08.082Z,100445.06
2024-03-16T06:58:36.462Z,100445.91
2024-03-16T07:01:05.599Z,100453.63
2024-03-16T07:03:34.129Z,100459.94
2024-03-16T07:06:03.587Z,100472.50
2024-03-16T07:08:31.926Z,100472.16
2024-03-16T07:11:00.311Z,100473.03
2024-03-16T07:13:28.762Z,100470.03
2024-03-16T07:15:57.132Z,100483.75
2024-03-16T07:18:25.459Z,100487.72
2024-03-16T07:20:54.344Z,100501.50
2024-03-16T07:23:23.143Z,100510.38
2024-03-16T07:25:52.567Z,100513.38
2024-03-16T07:28:21.003Z,100519.75
2024-03-16T07:30:55.800Z,100528.53
2024-03-16T07:33:24.257Z,100532.81
2024-03-16T07:36:00.959Z,100538.88
2024-03-16T07:38:29.488Z,100556.59
2024-03-16T07:40:58.033Z,100565.88
2024-03-16T07:43:26.649Z,100572.22
2024-03-16T07:45:55.129Z,100577.69
2024-03-16T07:48:23.705Z,100585.97
2024-03-16T07:50:52.031Z,100591.78
2024-03-16T07:53:20.399Z,100590.75
2024-03-16T07:55:50.489Z,100606.72
2024-03-16T07:58:18.896Z,100611.03
2024-03-16T08:00:47.929Z,100616.06
2024-03-16T08:03:16.356Z,100621.88
2024-03-16T08:05:45.299Z,100629.97
2024-03-16T08:08:13.926Z,100640.69
2024-03-16T08:10:42.318Z,100646.94
2024-03-16T08:13:10.657Z,100661.22
2024-03-16T08:15:39.414Z,100663.88
2024-03-16T08:18:08.034Z,100672.13
2024-03-16T08:20:37.776Z,100679.59
2024-03-16T08:23:06.189Z,100679.41
2024-03-16T08:25:36.995Z,100685.28
2024-03-16T08:28:06.534Z,100697.47
2024-03-16T08:30:34.981Z,100701.59
2024-03-16T08:33:03.572Z,100700.19
2024-03-16T08:35:33.274Z,100706.78
2024-03-16T08:38:06.115Z,100705.50
2024-03-16T08:40:34.614Z,100721.88
2024-03-16T08:43:03.900Z,100712.78
2024-03-16T08:45:32.637Z,100728.38
2024-03-16T08:48:02.196Z,100736.34
2024-03-16T08:50:30.693Z,100739.41
2024-03-16T08:52:59.345Z,100746.25
2024-03-16T08:55:27.833Z,100749.59
2024-03-16T08:57:56.347Z,100755.06
2024-03-16T09:00:26.249Z,100762.47
2024-03-16T09:02:54.676Z,100760.09
2024-03-16T09:05:23.121Z,100779.59
2024-03-16T09:07:51.692Z,100772.59
2024-03-16T09:10:21.501Z,100785.94
2024-03-16T09:12:50.552Z,100780.78
2024-03-16T09:15:20.769Z,100789.09
2024-03-16T09:17:49.096Z,100789.50
2024-03-16T09:20:17.469Z,100803.00
2024-03-16T09:22:46.025Z,100803.00
2024-03-16T09:25:14.775Z,100823.03
2024-03-16T09:27:43.265Z,100824.91
2024-03-16T09:30:12.920Z,100824.22
2024-03-16T09:32:41.559Z,100826.34
2024-03-16T09:35:13.028Z,100827.50
2024-03-16T09:37:42.468Z,100833.25
2024-03-16T09:40:12.436Z,100827.59
2024-03-16T09:42:41.721Z,100842.13
